Beaver County Airport
KBVI : rendu visible

Aérodrome :











RETROUVEZ-NOUS SUR...

 
LOGIN :

S'inscrire | Disclaimer

   EN    FR    IT 

 









Légende :    VFR   VFR Marginal   IFR   IFR Intensif   IFR Très Intensif
Visi : 
Plafond : 
>= 8 km
>= 3000ft
5 à 8 km
1000 à 3000 ft
1500m à 5 km
500 à 1000 ft
800 à 1500m
200 à 500 ft
< 800m
< 200 ft
Symboles :   Orages  Brouillard  Fortes neiges  Fortes précipitations  Vent > 20 kt






- Altitude de l'aérodrome : 1253 ft


KBVI - Beaver County

DERNIER METAR :
  • 190415Z AUTO 25009G17KT 10SM OVC027 03/M01 A2974 RMK AO2 T00271012

METARs EXPIRÉS :
  • 190355Z AUTO 25009G16KT 10SM OVC025 03/M01 A2974 RMK AO2 T00251009
  • 190335Z AUTO 26011G16KT 10SM OVC025 03/M01 A2974 RMK AO2 T00261008
  • 190316Z AUTO 26014G17KT 10SM OVC025 03/00 A2974 RMK AO2 T00251002
  • 190255Z AUTO 27010G19KT 10SM SCT019 OVC025 03/00 A2974 RMK AO2 T00250000
  • 190235Z AUTO 28015G26KT 7SM DZ BKN018 OVC024 03/00 A2975 RMK AO2 T00300000
  • 190216Z AUTO 26013G19KT 10SM OVC024 04/00 A2974 RMK AO2 T00370000
  • 190156Z AUTO 25015G24KT 10SM BKN026 OVC034 04/00 A2974 RMK AO2 T00400001
  • 190135Z AUTO 26015G21KT 10SM OVC026 05/01 A2974 RMK AO2 T00450010
  • 190115Z AUTO 26012G23KT 10SM BKN021 OVC027 05/01 A2974 RMK AO2 T00450013

TAF KBVI
Valide du 19 à 03h jusqu'au 20 à 00h UTC


190243Z 1903/1924 28015G25KT P6SM OVC015
FM191000 26013G22KT P6SM VCSH OVC010



MET'MAP, la Météo Aéronautique d'un coup d'oeil ! - Copyright ORBIFLY Décembre 2007 - Disclaimer

ORBIFLY MET'MAP TEAM :

Programmation & Développement : Alexandra Zaïnal
Sur une idée originale de : Baudouin d'Aumeries
Assistance à la programmation : Marc-Olivier Méhu
Soutien technique & logistique : Manuel Goepfert

Contact : metmap@orbifly.com




SOURCES & CREDITS :

   NOAA       Earth
Advisory